Afton, Virginia
Current Conditions -  °F | °C
As of 12:55 PM on Monday 24 Nov 2014 (Local Time) from KW13 Reporting Station
Clear Clear  
Wind Chill: 66°   Ceiling: Unl
Heat Index: 66°   Visibility: 10mi
Dew Point: 51°   Wind: 13mph
Humidity: 58%   Direction: 180°S
Pressure: 29.63"   Gusts: 22mph
Location:  38°N, 78.78°W
Report Text: KW13 241755Z AUTO 18011G19KT 10SM CLR 19/10 A2963 RMK AO1 T01880103 10190 20122
Loading
Personal Weather Stations






























Interactive Weather Map New forecast layout! Learn more

10-Day Weather Forecast

Advertisements
Track Severe Weather on mobile